Time,TemperatureF,DewpointF,PressureIn,WindDirection,WindDirectionDegrees,WindSpeedMPH,WindSpeedGustMPH,Humidity,HourlyPrecipIn,Conditions,Clouds,dailyrainin,SolarRadiationWatts/m^2,SoftwareType,DateUTC
2013-04-23 00:02:00,26.0,24.0,-100.00,South,174,5.0,12.0,92,0.00,,,0.14,0.000000,,2013-04-23 06:02:00,
2013-04-23 00:33:00,23.0,21.0,-100.00,South,173,7.0,13.0,91,0.00,,,0.14,0.000000,,2013-04-23 06:33:00,
2013-04-23 00:42:00,23.0,21.0,-100.00,South,173,7.0,13.0,91,0.00,,,0.14,0.000000,,2013-04-23 06:42:00,
2013-04-23 00:52:00,23.0,21.0,-100.00,South,173,7.0,13.0,91,0.00,,,0.14,0.000000,,2013-04-23 06:52:00,
2013-04-23 01:02:00,23.0,21.0,-100.00,South,173,7.0,13.0,91,0.00,,,0.14,0.000000,,2013-04-23 07:02:00,
2013-04-23 01:32:00,20.0,17.0,-100.00,SSW,194,8.0,15.0,89,0.00,,,0.14,0.000000,,2013-04-23 07:32:00,
2013-04-23 01:42:00,20.0,17.0,-100.00,SSW,194,8.0,15.0,89,0.00,,,0.14,0.000000,,2013-04-23 07:42:00,
2013-04-23 01:52:00,20.0,17.0,-100.00,SSW,194,8.0,15.0,89,0.00,,,0.14,0.000000,,2013-04-23 07:52:00,
2013-04-23 02:02:00,20.0,17.0,-100.00,SSW,194,8.0,15.0,89,0.00,,,0.14,0.000000,,2013-04-23 08:02:00,
2013-04-23 02:32:00,18.0,15.0,-100.00,South,174,7.0,15.0,88,0.00,,,0.14,0.000000,,2013-04-23 08:32:00,
2013-04-23 02:42:00,18.0,15.0,-100.00,South,174,7.0,15.0,88,0.00,,,0.14,0.000000,,2013-04-23 08:42:00,
2013-04-23 02:52:00,18.0,15.0,-100.00,South,174,7.0,15.0,88,0.00,,,0.14,0.000000,,2013-04-23 08:52:00,
2013-04-23 03:01:00,18.0,15.0,-100.00,South,174,7.0,15.0,88,0.00,,,0.14,0.000000,,2013-04-23 09:01:00,
2013-04-23 03:33:00,17.0,14.0,-100.00,SSE,162,7.0,11.0,88,0.00,,,0.14,0.000000,,2013-04-23 09:33:00,
2013-04-23 03:43:00,17.0,14.0,-100.00,SSE,162,7.0,11.0,88,0.00,,,0.14,0.000000,,2013-04-23 09:43:00,
2013-04-23 03:53:00,17.0,14.0,-100.00,SSE,162,7.0,11.0,88,0.00,,,0.14,0.000000,,2013-04-23 09:53:00,
2013-04-23 04:02:00,17.0,14.0,-100.00,SSE,162,7.0,11.0,88,0.00,,,0.14,0.000000,,2013-04-23 10:02:00,
2013-04-23 04:33:00,16.0,13.0,-100.00,South,178,5.0,13.0,87,0.00,,,0.14,0.000000,,2013-04-23 10:33:00,
2013-04-23 04:43:00,16.0,13.0,-100.00,South,178,5.0,13.0,87,0.00,,,0.14,0.000000,,2013-04-23 10:43:00,
2013-04-23 04:52:00,16.0,13.0,-100.00,South,178,5.0,13.0,87,0.00,,,0.14,0.000000,,2013-04-23 10:52:00,
2013-04-23 05:03:00,16.0,13.0,-100.00,South,178,5.0,13.0,87,0.00,,,0.14,0.000000,,2013-04-23 11:03:00,
2013-04-23 05:32:00,15.0,12.0,-100.00,South,172,5.0,13.0,87,0.00,,,-99.99,0.000000,,2013-04-23 11:32:00,
2013-04-23 05:43:00,15.0,12.0,-100.00,South,172,5.0,13.0,87,0.00,,,-99.99,0.000000,,2013-04-23 11:43:00,
2013-04-23 05:53:00,15.0,12.0,-100.00,South,172,5.0,13.0,87,0.00,,,-99.99,0.000000,,2013-04-23 11:53:00,
2013-04-23 06:02:00,15.0,12.0,-100.00,South,172,5.0,13.0,87,0.00,,,-99.99,0.000000,,2013-04-23 12:02:00,
2013-04-23 07:32:00,14.0,11.0,-100.00,South,175,6.0,11.0,86,-99.99,,,0.14,14.000000,,2013-04-23 13:32:00,
2013-04-23 07:42:00,14.0,11.0,-100.00,South,175,6.0,11.0,86,-99.99,,,0.14,14.000000,,2013-04-23 13:42:00,
2013-04-23 07:52:00,14.0,11.0,-100.00,South,175,6.0,11.0,86,-99.99,,,0.14,14.000000,,2013-04-23 13:52:00,
2013-04-23 08:02:00,14.0,11.0,-100.00,South,175,6.0,11.0,86,-99.99,,,0.14,14.000000,,2013-04-23 14:02:00,
2013-04-23 08:32:00,17.0,12.0,-100.00,SSE,153,5.0,12.0,80,0.00,,,0.14,206.000000,,2013-04-23 14:32:00,
2013-04-23 08:42:00,17.0,12.0,-100.00,SSE,153,5.0,12.0,80,0.00,,,0.14,206.000000,,2013-04-23 14:42:00,
2013-04-23 08:52:00,17.0,12.0,-100.00,SSE,153,5.0,12.0,80,0.00,,,0.14,206.000000,,2013-04-23 14:52:00,
2013-04-23 09:01:00,17.0,12.0,-100.00,SSE,153,5.0,12.0,80,0.00,,,0.14,206.000000,,2013-04-23 15:01:00,
2013-04-23 10:34:00,22.0,16.0,-100.00,SSE,161,4.0,7.0,78,-99.99,,,0.05,557.000000,,2013-04-23 16:34:00,
2013-04-23 10:43:00,22.0,16.0,-100.00,SSE,161,4.0,7.0,78,-99.99,,,0.05,557.000000,,2013-04-23 16:43:00,
2013-04-23 10:53:00,22.0,16.0,-100.00,SSE,161,4.0,7.0,78,-99.99,,,0.05,557.000000,,2013-04-23 16:53:00,
2013-04-23 11:02:00,22.0,16.0,-100.00,SSE,161,4.0,7.0,78,-99.99,,,0.05,557.000000,,2013-04-23 17:02:00,
2013-04-23 11:33:00,25.0,19.0,-100.00,SSE,149,5.0,9.0,76,0.08,,,0.09,806.000000,,2013-04-23 17:33:00,
2013-04-23 11:43:00,25.0,19.0,-100.00,SSE,149,5.0,9.0,76,0.08,,,0.09,806.000000,,2013-04-23 17:43:00,
2013-04-23 11:53:00,25.0,19.0,-100.00,SSE,149,5.0,9.0,76,0.08,,,0.09,806.000000,,2013-04-23 17:53:00,
2013-04-23 12:02:00,25.0,19.0,-100.00,SSE,149,5.0,9.0,76,0.08,,,0.09,806.000000,,2013-04-23 18:02:00,
2013-04-23 12:32:00,26.0,17.0,-100.00,North,353,11.0,20.0,69,0.10,,,0.19,796.000000,,2013-04-23 18:32:00,
2013-04-23 12:42:00,26.0,17.0,-100.00,North,353,11.0,20.0,69,0.10,,,0.19,796.000000,,2013-04-23 18:42:00,
2013-04-23 12:52:00,26.0,17.0,-100.00,North,353,11.0,20.0,69,0.10,,,0.19,796.000000,,2013-04-23 18:52:00,
2013-04-23 13:02:00,26.0,17.0,-100.00,North,353,11.0,20.0,69,0.10,,,0.19,796.000000,,2013-04-23 19:02:00,
2013-04-23 13:32:00,28.0,18.0,-100.00,NNE,13,7.0,19.0,67,0.01,,,0.20,873.000000,,2013-04-23 19:32:00,
2013-04-23 13:42:00,28.0,18.0,-100.00,NNE,13,7.0,19.0,67,0.01,,,0.20,873.000000,,2013-04-23 19:42:00,
2013-04-23 13:52:00,28.0,18.0,-100.00,NNE,13,7.0,19.0,67,0.01,,,0.20,873.000000,,2013-04-23 19:52:00,
2013-04-23 14:02:00,28.0,18.0,-100.00,NNE,13,7.0,19.0,67,0.01,,,0.20,873.000000,,2013-04-23 20:02:00,
2013-04-23 14:32:00,27.0,14.0,-100.00,North,9,9.0,20.0,57,0.00,,,0.19,744.000000,,2013-04-23 20:32:00,
2013-04-23 14:42:00,27.0,14.0,-100.00,North,9,9.0,20.0,57,0.00,,,0.19,744.000000,,2013-04-23 20:42:00,
2013-04-23 14:52:00,27.0,14.0,-100.00,North,9,9.0,20.0,57,0.00,,,0.19,744.000000,,2013-04-23 20:52:00,
2013-04-23 15:02:00,27.0,14.0,-100.00,North,9,9.0,20.0,57,0.00,,,0.19,744.000000,,2013-04-23 21:02:00,
2013-04-23 15:33:00,27.0,13.0,-100.00,NNE,13,6.0,18.0,54,0.00,,,0.19,713.000000,,2013-04-23 21:33:00,
2013-04-23 15:43:00,27.0,13.0,-100.00,NNE,13,6.0,18.0,54,0.00,,,0.19,713.000000,,2013-04-23 21:43:00,
2013-04-23 15:52:00,27.0,13.0,-100.00,NNE,13,6.0,18.0,54,0.00,,,0.19,713.000000,,2013-04-23 21:52:00,
2013-04-23 16:03:00,27.0,13.0,-100.00,NNE,13,6.0,18.0,54,0.00,,,0.19,713.000000,,2013-04-23 22:03:00,
2013-04-23 16:33:00,31.0,6.0,-100.00,NNW,331,7.0,13.0,34,0.00,,,0.19,850.000000,,2013-04-23 22:33:00,
2013-04-23 16:42:00,31.0,6.0,-100.00,NNW,331,7.0,13.0,34,0.00,,,0.19,850.000000,,2013-04-23 22:42:00,
2013-04-23 16:52:00,31.0,6.0,-100.00,NNW,331,7.0,13.0,34,0.00,,,0.19,850.000000,,2013-04-23 22:52:00,
2013-04-23 17:03:00,31.0,6.0,-100.00,NNW,331,7.0,13.0,34,0.00,,,0.19,850.000000,,2013-04-23 23:03:00,
2013-04-23 17:32:00,30.0,4.0,-100.00,NW,309,8.0,15.0,32,0.00,,,0.19,786.000000,,2013-04-23 23:32:00,
2013-04-23 17:42:00,30.0,4.0,-100.00,NW,309,8.0,15.0,32,0.00,,,0.19,786.000000,,2013-04-23 23:42:00,
2013-04-23 17:52:00,30.0,4.0,-100.00,NW,309,8.0,15.0,32,0.00,,,0.19,786.000000,,2013-04-23 23:52:00,
2013-04-23 18:01:00,30.0,4.0,-100.00,NW,309,8.0,15.0,32,0.00,,,0.19,786.000000,,2013-04-24 00:01:00,
2013-04-23 19:32:00,23.0,0.0,-100.00,NNW,330,3.0,11.0,36,-99.99,,,0.19,130.000000,,2013-04-24 01:32:00,
2013-04-23 19:43:00,23.0,0.0,-100.00,NNW,330,3.0,11.0,36,-99.99,,,0.19,130.000000,,2013-04-24 01:43:00,
2013-04-23 19:52:00,23.0,0.0,-100.00,NNW,330,3.0,11.0,36,-99.99,,,0.19,130.000000,,2013-04-24 01:52:00,
2013-04-23 20:02:00,23.0,0.0,-100.00,NNW,330,3.0,11.0,36,-99.99,,,0.19,130.000000,,2013-04-24 02:02:00,
2013-04-23 20:08:00,19.0,7.0,-100.00,North,5,2.0,11.0,58,0.00,,,0.19,16.000000,,2013-04-24 02:08:00,
2013-04-23 20:42:00,19.0,7.0,-100.00,North,5,2.0,11.0,58,0.00,,,0.19,16.000000,,2013-04-24 02:42:00,
2013-04-23 20:50:00,19.0,7.0,-100.00,North,5,2.0,11.0,58,0.00,,,0.19,16.000000,,2013-04-24 02:50:00,
2013-04-23 21:43:00,15.0,8.0,-100.00,North,8,1.0,3.0,74,0.00,,,0.19,0.000000,,2013-04-24 03:43:00,
2013-04-23 21:53:00,15.0,8.0,-100.00,North,8,1.0,3.0,74,0.00,,,0.19,0.000000,,2013-04-24 03:53:00,
2013-04-23 22:01:00,15.0,8.0,-100.00,North,8,1.0,3.0,74,0.00,,,0.19,0.000000,,2013-04-24 04:01:00,
2013-04-23 22:03:00,15.0,8.0,-100.00,North,8,1.0,3.0,74,0.00,,,0.19,0.000000,,2013-04-24 04:03:00,
2013-04-23 22:33:00,13.0,7.0,-100.00,NW,313,3.0,4.0,75,0.00,,,0.19,0.000000,,2013-04-24 04:33:00,
2013-04-23 22:43:00,13.0,7.0,-100.00,NW,313,3.0,4.0,75,0.00,,,0.19,0.000000,,2013-04-24 04:43:00,
2013-04-23 22:53:00,13.0,7.0,-100.00,NW,313,3.0,4.0,75,0.00,,,0.19,0.000000,,2013-04-24 04:53:00,
2013-04-23 23:02:00,13.0,7.0,-100.00,NW,313,3.0,4.0,75,0.00,,,0.19,0.000000,,2013-04-24 05:02:00,
2013-04-23 23:32:00,13.0,5.0,-100.00,NNW,327,3.0,6.0,69,0.00,,,0.19,0.000000,,2013-04-24 05:32:00,
2013-04-23 23:42:00,13.0,5.0,-100.00,NNW,327,3.0,6.0,69,0.00,,,0.19,0.000000,,2013-04-24 05:42:00,
2013-04-23 23:52:00,13.0,5.0,-100.00,NNW,327,3.0,6.0,69,0.00,,,0.19,0.000000,,2013-04-24 05:52:00,